createdAt,value
2022-12-11T00:00:22.836Z,39.38
2022-12-11T00:02:49.525Z,44.22
2022-12-11T00:05:16.387Z,41.95
2022-12-11T00:07:43.035Z,41.08
2022-12-11T00:10:09.966Z,43.42
2022-12-11T00:12:36.567Z,46.50
2022-12-11T00:15:05.148Z,45.25
2022-12-11T00:17:31.995Z,43.58
2022-12-11T00:19:58.563Z,43.38
2022-12-11T00:22:25.124Z,43.72
2022-12-11T00:24:51.736Z,44.88
2022-12-11T00:27:18.370Z,43.78
2022-12-11T00:29:45.005Z,45.50
2022-12-11T00:32:13.041Z,47.60
2022-12-11T00:34:39.996Z,46.63
2022-12-11T00:37:06.789Z,42.50
2022-12-11T00:39:33.488Z,41.05
2022-12-11T00:42:00.272Z,41.05
2022-12-11T00:44:26.838Z,41.75
2022-12-11T00:46:53.622Z,41.58
2022-12-11T00:49:21.795Z,46.20
2022-12-11T00:51:48.387Z,46.88
2022-12-11T00:54:14.993Z,43.90
2022-12-11T00:56:41.571Z,44.42
2022-12-11T00:59:08.259Z,41.80
2022-12-11T01:01:35.313Z,47.70
2022-12-11T01:04:01.952Z,41.88
2022-12-11T01:06:29.979Z,47.00
2022-12-11T01:08:56.833Z,50.50
2022-12-11T01:11:23.504Z,43.38
2022-12-11T01:13:50.031Z,43.05
2022-12-11T01:16:16.859Z,43.40
2022-12-11T01:18:44.343Z,48.58
2022-12-11T01:21:13.282Z,41.45
2022-12-11T01:23:41.161Z,45.03
2022-12-11T01:26:09.609Z,49.88
2022-12-11T01:28:36.437Z,56.03
2022-12-11T01:31:07.175Z,46.97
2022-12-11T01:33:33.782Z,47.50
2022-12-11T01:36:00.428Z,46.45
2022-12-11T01:38:27.065Z,41.55
2022-12-11T01:40:54.979Z,47.80
2022-12-11T01:43:21.624Z,41.67
2022-12-11T01:45:48.683Z,44.63
2022-12-11T01:48:18.872Z,45.30
2022-12-11T01:50:48.831Z,44.70
2022-12-11T01:53:19.865Z,55.55
2022-12-11T01:55:48.237Z,47.47
2022-12-11T01:58:18.215Z,42.63
2022-12-11T02:00:44.930Z,48.22
2022-12-11T02:03:11.483Z,46.58
2022-12-11T02:05:38.227Z,44.83
2022-12-11T02:08:07.175Z,42.75
2022-12-11T02:10:47.711Z,43.17
2022-12-11T02:13:21.246Z,45.20
2022-12-11T02:15:52.598Z,41.58
2022-12-11T02:18:28.890Z,35.15
2022-12-11T02:21:02.277Z,39.83
2022-12-11T02:23:45.230Z,43.10
2022-12-11T02:26:30.142Z,138.85
2022-12-11T02:29:00.984Z,109.85
2022-12-11T02:31:34.678Z,45.00
2022-12-11T02:34:04.886Z,45.45
2022-12-11T02:36:35.837Z,42.03
2022-12-11T02:39:04.812Z,47.42
2022-12-11T02:41:33.836Z,46.00
2022-12-11T02:44:04.238Z,42.10
2022-12-11T02:46:34.248Z,45.40
2022-12-11T02:49:04.468Z,40.78
2022-12-11T02:51:35.022Z,47.40
2022-12-11T02:54:02.637Z,48.85
2022-12-11T02:56:33.587Z,45.42
2022-12-11T02:59:06.850Z,47.70
2022-12-11T03:01:33.708Z,47.42
2022-12-11T03:04:00.352Z,52.70
2022-12-11T03:06:32.128Z,50.38
2022-12-11T03:08:58.721Z,41.85
2022-12-11T03:11:25.239Z,50.42
2022-12-11T03:13:53.472Z,38.72
2022-12-11T03:16:33.689Z,46.67
2022-12-11T03:19:09.132Z,45.35
2022-12-11T03:21:42.364Z,46.13
2022-12-11T03:24:12.422Z,44.13
2022-12-11T03:26:42.204Z,44.03
2022-12-11T03:29:17.844Z,46.08
2022-12-11T03:31:51.840Z,46.42
2022-12-11T03:34:23.600Z,50.47
2022-12-11T03:36:51.688Z,48.25
2022-12-11T03:39:24.816Z,48.72
2022-12-11T03:41:53.533Z,49.15
2022-12-11T03:44:21.393Z,57.00
2022-12-11T03:46:50.320Z,58.17
2022-12-11T03:49:20.254Z,50.55
2022-12-11T03:51:50.020Z,65.05
2022-12-11T03:54:17.795Z,80.85
2022-12-11T03:56:45.455Z,59.78
2022-12-11T03:59:12.521Z,49.58
2022-12-11T04:01:39.700Z,51.53
2022-12-11T04:04:07.688Z,51.22
2022-12-11T04:06:34.447Z,49.45
2022-12-11T04:09:00.980Z,44.35
2022-12-11T04:11:27.609Z,46.08
2022-12-11T04:13:54.232Z,51.97
2022-12-11T04:16:20.803Z,43.83
2022-12-11T04:18:47.927Z,46.90
2022-12-11T04:21:15.887Z,44.28
2022-12-11T04:23:42.436Z,51.72
2022-12-11T04:26:10.745Z,47.10
2022-12-11T04:28:37.641Z,47.08
2022-12-11T04:31:05.101Z,45.72
2022-12-11T04:33:31.812Z,48.40
2022-12-11T04:35:59.340Z,45.28
2022-12-11T04:38:27.361Z,45.25
2022-12-11T04:40:58.184Z,42.10
2022-12-11T04:43:24.842Z,44.90
2022-12-11T04:45:51.346Z,48.13
2022-12-11T04:48:18.105Z,45.17
2022-12-11T04:50:44.790Z,46.38
2022-12-11T04:53:11.329Z,57.35
2022-12-11T04:55:40.428Z,44.75
2022-12-11T04:58:07.068Z,50.53
2022-12-11T05:00:33.580Z,46.08
2022-12-11T05:03:00.264Z,45.47
2022-12-11T05:05:26.888Z,41.25
2022-12-11T05:07:53.577Z,48.35
2022-12-11T05:10:20.113Z,45.72
2022-12-11T05:12:48.190Z,48.35
2022-12-11T05:15:14.780Z,48.28
2022-12-11T05:17:41.377Z,57.20
2022-12-11T05:20:08.935Z,58.25
2022-12-11T05:22:35.748Z,53.47
2022-12-11T05:25:02.389Z,51.83
2022-12-11T05:27:29.050Z,60.53
2022-12-11T05:29:59.600Z,53.97
2022-12-11T05:32:26.492Z,58.92
2022-12-11T05:34:53.211Z,53.28
2022-12-11T05:37:19.785Z,56.60
2022-12-11T05:39:46.260Z,50.30
2022-12-11T05:42:12.835Z,57.47
2022-12-11T05:44:39.313Z,49.80
2022-12-11T05:47:07.269Z,55.88
2022-12-11T05:49:33.765Z,53.53
2022-12-11T05:52:00.297Z,53.25
2022-12-11T05:54:26.774Z,57.67
2022-12-11T05:56:53.442Z,60.40
2022-12-11T05:59:19.959Z,55.33
2022-12-11T06:01:46.821Z,59.60
2022-12-11T06:04:14.890Z,61.80
2022-12-11T06:06:42.175Z,60.83
2022-12-11T06:09:12.593Z,61.38
2022-12-11T06:11:39.316Z,56.65
2022-12-11T06:14:05.843Z,55.50
2022-12-11T06:16:32.865Z,68.22
2022-12-11T06:18:59.715Z,57.65
2022-12-11T06:21:29.943Z,57.10
2022-12-11T06:23:58.487Z,65.82
2022-12-11T06:26:25.937Z,59.55
2022-12-11T06:28:53.072Z,62.88
2022-12-11T06:31:20.537Z,80.88
2022-12-11T06:33:47.391Z,71.03
2022-12-11T06:36:16.927Z,69.53
2022-12-11T06:38:46.020Z,68.35
2022-12-11T06:41:12.755Z,59.65
2022-12-11T06:43:40.816Z,65.57
2022-12-11T06:46:09.554Z,59.92
2022-12-11T06:48:36.909Z,62.97
2022-12-11T06:51:06.804Z,58.92
2022-12-11T06:53:33.452Z,59.58
2022-12-11T06:56:03.773Z,74.22
2022-12-11T06:58:30.331Z,58.92
2022-12-11T07:00:56.882Z,74.80
2022-12-11T07:03:23.433Z,65.65
2022-12-11T07:05:50.022Z,66.10
2022-12-11T07:08:16.884Z,65.00
2022-12-11T07:10:43.478Z,61.97
2022-12-11T07:13:11.383Z,60.90
2022-12-11T07:15:40.527Z,63.50
2022-12-11T07:18:09.028Z,65.72
2022-12-11T07:20:35.615Z,62.28
2022-12-11T07:23:02.145Z,61.28
2022-12-11T07:25:28.736Z,57.97
2022-12-11T07:27:55.421Z,59.45
2022-12-11T07:30:23.313Z,52.65
2022-12-11T07:32:50.301Z,64.57
2022-12-11T07:35:16.945Z,55.97
2022-12-11T07:37:43.714Z,53.47
2022-12-11T07:40:11.281Z,59.88
2022-12-11T07:42:42.827Z,53.60
2022-12-11T07:45:12.938Z,63.83
2022-12-11T07:47:41.318Z,56.63
2022-12-11T07:50:08.558Z,62.10
2022-12-11T07:52:35.930Z,71.47
2022-12-11T07:55:03.449Z,67.63
2022-12-11T07:57:29.967Z,77.55
2022-12-11T07:59:56.592Z,78.20
2022-12-11T08:02:23.228Z,58.40
2022-12-11T08:04:51.579Z,62.72
2022-12-11T08:07:18.318Z,60.15
2022-12-11T08:09:44.862Z,57.58
2022-12-11T08:12:12.487Z,60.13
2022-12-11T08:14:39.124Z,58.03
2022-12-11T08:17:05.745Z,54.88
2022-12-11T08:19:32.431Z,70.72
2022-12-11T08:22:00.522Z,70.15
2022-12-11T08:24:27.836Z,67.82
2022-12-11T08:26:54.334Z,77.10
2022-12-11T08:29:20.930Z,101.05
2022-12-11T08:31:47.536Z,73.07
2022-12-11T08:34:14.183Z,69.53
2022-12-11T08:36:41.165Z,73.15
2022-12-11T08:39:10.841Z,66.43
2022-12-11T08:41:37.410Z,65.75
2022-12-11T08:44:05.976Z,55.35
2022-12-11T08:46:32.783Z,59.35
2022-12-11T08:48:59.869Z,66.35
2022-12-11T08:51:29.125Z,60.85
2022-12-11T08:53:56.857Z,64.10
2022-12-11T08:56:26.270Z,62.13
2022-12-11T08:58:53.407Z,64.22
2022-12-11T09:01:23.336Z,65.30
2022-12-11T09:03:51.289Z,64.82
2022-12-11T09:06:20.130Z,66.90
2022-12-11T09:08:52.560Z,65.90
2022-12-11T09:11:21.610Z,58.47
2022-12-11T09:13:49.746Z,70.85
2022-12-11T09:16:19.412Z,63.47
2022-12-11T09:18:47.746Z,63.20
2022-12-11T09:21:16.961Z,63.65
2022-12-11T09:23:44.146Z,70.18
2022-12-11T09:26:13.041Z,64.05
2022-12-11T09:28:44.420Z,65.47
2022-12-11T09:31:16.246Z,68.78
2022-12-11T09:33:43.278Z,65.90
2022-12-11T09:36:10.911Z,65.95
2022-12-11T09:38:38.032Z,69.57
2022-12-11T09:41:23.010Z,64.75
2022-12-11T09:43:59.126Z,71.78
2022-12-11T09:46:33.802Z,60.53
2022-12-11T09:49:02.994Z,64.28
2022-12-11T09:51:36.605Z,63.45
2022-12-11T09:54:05.076Z,58.38
2022-12-11T09:56:34.335Z,66.70
2022-12-11T09:59:09.279Z,57.83
2022-12-11T10:01:45.378Z,60.10
2022-12-11T10:04:25.814Z,63.60
2022-12-11T10:07:02.359Z,57.05
2022-12-11T10:09:39.893Z,58.90
2022-12-11T10:12:18.740Z,58.03
2022-12-11T10:14:58.947Z,55.40
2022-12-11T10:17:30.823Z,51.97
2022-12-11T10:20:00.329Z,54.80
2022-12-11T10:22:31.592Z,53.50
2022-12-11T10:25:16.294Z,53.65
2022-12-11T10:27:43.109Z,52.75
2022-12-11T10:30:16.235Z,50.50
2022-12-11T10:32:51.308Z,53.38
2022-12-11T10:35:29.698Z,45.75
2022-12-11T10:38:02.456Z,49.00
2022-12-11T10:40:30.685Z,51.58
2022-12-11T10:42:57.227Z,47.10
2022-12-11T10:45:24.510Z,52.67
2022-12-11T10:48:02.365Z,45.20
2022-12-11T10:50:29.080Z,52.35
2022-12-11T10:52:55.813Z,52.63
2022-12-11T10:55:25.967Z,56.85
2022-12-11T10:57:58.673Z,63.88
2022-12-11T11:00:35.491Z,136.57
2022-12-11T11:03:04.651Z,45.65
2022-12-11T11:05:33.524Z,56.28
2022-12-11T11:08:10.860Z,45.85
2022-12-11T11:10:37.582Z,48.38
2022-12-11T11:13:04.104Z,49.10
2022-12-11T11:15:31.173Z,45.90
2022-12-11T11:18:09.159Z,40.55
2022-12-11T11:20:42.730Z,41.13
2022-12-11T11:23:13.909Z,44.92
2022-12-11T11:25:50.350Z,45.72
2022-12-11T11:28:20.773Z,46.08
2022-12-11T11:31:00.768Z,46.55
2022-12-11T11:33:28.793Z,40.78
2022-12-11T11:35:58.355Z,39.53
2022-12-11T11:38:28.507Z,39.15
2022-12-11T11:41:05.620Z,42.67
2022-12-11T11:43:40.597Z,40.63
2022-12-11T11:46:13.992Z,44.17
2022-12-11T11:48:50.264Z,42.17
2022-12-11T11:51:24.464Z,42.80
2022-12-11T11:53:54.310Z,44.38
2022-12-11T11:56:23.403Z,41.33
2022-12-11T11:58:57.029Z,46.35
2022-12-11T12:01:24.025Z,60.20
2022-12-11T12:03:51.641Z,120.72
2022-12-11T12:06:34.178Z,64.55
2022-12-11T12:09:14.692Z,54.65
2022-12-11T12:11:49.990Z,62.10
2022-12-11T12:14:51.034Z,59.42
2022-12-11T12:17:22.203Z,50.88
2022-12-11T12:19:56.146Z,59.83
2022-12-11T12:22:40.680Z,47.70
2022-12-11T12:25:20.655Z,61.10
2022-12-11T12:27:56.432Z,39.60
2022-12-11T12:30:24.185Z,91.20
2022-12-11T12:33:12.633Z,47.70
2022-12-11T12:35:51.993Z,39.20
2022-12-11T12:38:30.352Z,43.67
2022-12-11T12:41:07.699Z,38.63
2022-12-11T12:44:00.923Z,42.03
2022-12-11T12:46:38.481Z,41.20
2022-12-11T12:49:10.631Z,51.28
2022-12-11T12:51:37.260Z,71.00
2022-12-11T12:54:12.477Z,38.33
2022-12-11T12:56:39.797Z,34.42
2022-12-11T12:59:17.859Z,31.65
2022-12-11T13:01:47.609Z,32.17
2022-12-11T13:04:55.567Z,38.95
2022-12-11T13:07:26.005Z,30.92
2022-12-11T13:10:00.135Z,31.15
2022-12-11T13:12:45.126Z,36.47
2022-12-11T13:15:31.905Z,29.05
2022-12-11T13:17:59.332Z,31.88
2022-12-11T13:20:27.424Z,27.85
2022-12-11T13:23:08.173Z,33.22
2022-12-11T13:25:49.367Z,33.10
2022-12-11T13:28:46.124Z,34.47
2022-12-11T13:31:30.310Z,33.97
2022-12-11T13:34:03.303Z,36.08
2022-12-11T13:36:33.701Z,33.22
2022-12-11T13:39:04.429Z,31.67
2022-12-11T13:41:36.070Z,34.13
2022-12-11T13:44:04.739Z,32.15
2022-12-11T13:46:35.605Z,30.73
2022-12-11T13:49:04.174Z,32.97
2022-12-11T13:51:32.557Z,32.78
2022-12-11T13:54:16.685Z,32.10
2022-12-11T13:56:56.198Z,37.17
2022-12-11T13:59:48.238Z,38.08
2022-12-11T14:02:21.067Z,31.17
2022-12-11T14:04:51.173Z,31.23
2022-12-11T14:07:25.933Z,36.90
2022-12-11T14:09:56.704Z,33.15
2022-12-11T14:12:24.725Z,34.85
2022-12-11T14:14:54.628Z,37.88
2022-12-11T14:17:25.641Z,38.13
2022-12-11T14:19:53.328Z,36.37
2022-12-11T14:22:22.236Z,38.65
2022-12-11T14:24:50.703Z,34.45
2022-12-11T14:27:18.510Z,36.63
2022-12-11T14:29:47.263Z,35.60
2022-12-11T14:32:18.937Z,40.08
2022-12-11T14:34:49.373Z,36.10
2022-12-11T14:37:20.101Z,39.42
2022-12-11T14:39:54.261Z,36.58
2022-12-11T14:42:24.553Z,34.22
2022-12-11T14:44:56.289Z,34.75
2022-12-11T14:47:27.123Z,42.67
2022-12-11T14:49:59.786Z,37.10
2022-12-11T14:52:31.024Z,33.03
2022-12-11T14:55:02.996Z,40.50
2022-12-11T14:59:58.939Z,42.40
2022-12-11T15:02:29.638Z,61.97
2022-12-11T15:05:18.711Z,62.67
2022-12-11T15:07:55.468Z,43.05
2022-12-11T15:10:34.776Z,63.47
2022-12-11T15:13:02.652Z,39.85
2022-12-11T15:15:37.505Z,48.88
2022-12-11T15:18:12.498Z,40.38
2022-12-11T15:20:39.181Z,43.15
2022-12-11T15:23:07.744Z,37.67
2022-12-11T15:25:34.483Z,39.33
2022-12-11T15:28:01.494Z,43.17
2022-12-11T15:30:33.118Z,35.47
2022-12-11T15:33:05.465Z,40.22
2022-12-11T15:37:59.279Z,47.67
2022-12-11T15:40:27.174Z,42.15
2022-12-11T15:42:54.488Z,42.22
2022-12-11T15:45:23.716Z,37.92
2022-12-11T15:47:52.537Z,40.28
2022-12-11T15:50:20.999Z,39.65
2022-12-11T15:52:48.985Z,47.55
2022-12-11T15:55:16.091Z,41.13
2022-12-11T15:57:47.259Z,36.72
2022-12-11T16:00:15.513Z,41.38
2022-12-11T16:02:42.146Z,38.95
2022-12-11T16:05:10.772Z,46.08
2022-12-11T16:07:37.862Z,40.65
2022-12-11T16:10:06.110Z,46.67
2022-12-11T16:12:32.706Z,42.50
2022-12-11T16:14:59.650Z,40.45
2022-12-11T16:17:26.162Z,39.20
2022-12-11T16:19:53.459Z,35.20
2022-12-11T16:22:21.358Z,36.03
2022-12-11T16:24:48.182Z,36.90
2022-12-11T16:27:19.930Z,36.00
2022-12-11T16:29:50.487Z,39.42
2022-12-11T16:32:17.431Z,30.63
2022-12-11T16:34:44.384Z,39.83
2022-12-11T16:37:11.396Z,35.30
2022-12-11T16:39:39.388Z,33.95
2022-12-11T16:42:06.833Z,39.83
2022-12-11T16:44:33.517Z,36.35
2022-12-11T16:47:00.756Z,36.67
2022-12-11T16:49:28.298Z,41.17
2022-12-11T16:51:58.014Z,42.63
2022-12-11T16:54:24.740Z,33.83
2022-12-11T16:56:52.640Z,29.52
2022-12-11T16:59:19.479Z,28.95
2022-12-11T17:01:46.067Z,33.45
2022-12-11T17:04:12.637Z,33.05
2022-12-11T17:06:39.181Z,34.65
2022-12-11T17:09:05.753Z,35.58
2022-12-11T17:11:32.268Z,35.38
2022-12-11T17:14:00.523Z,36.63
2022-12-11T17:16:28.800Z,32.17
2022-12-11T17:18:56.021Z,31.20
2022-12-11T17:21:23.318Z,34.10
2022-12-11T17:23:50.585Z,32.45
2022-12-11T17:26:17.700Z,31.58
2022-12-11T17:28:44.861Z,38.00
2022-12-11T17:31:17.774Z,30.73
2022-12-11T17:33:45.215Z,32.72
2022-12-11T17:36:14.248Z,31.85
2022-12-11T17:38:41.078Z,31.83
2022-12-11T17:41:08.000Z,33.33
2022-12-11T17:43:34.625Z,37.97
2022-12-11T17:46:01.818Z,41.00
2022-12-11T17:48:29.837Z,39.03
2022-12-11T17:50:56.732Z,35.22
2022-12-11T17:53:24.167Z,36.65
2022-12-11T17:55:52.129Z,34.78
2022-12-11T17:58:23.435Z,32.75
2022-12-11T18:00:54.682Z,37.37
2022-12-11T18:03:22.336Z,34.35
2022-12-11T18:05:53.683Z,36.67
2022-12-11T18:08:23.036Z,31.15
2022-12-11T18:10:50.270Z,31.90
2022-12-11T18:13:19.883Z,35.45
2022-12-11T18:16:01.535Z,30.13
2022-12-11T18:18:30.132Z,29.38
2022-12-11T18:20:58.760Z,30.85
2022-12-11T18:23:30.373Z,34.30
2022-12-11T18:25:58.957Z,31.17
2022-12-11T18:28:25.970Z,30.65
2022-12-11T18:30:56.612Z,33.80
2022-12-11T18:33:24.120Z,31.77
2022-12-11T18:35:51.895Z,31.17
2022-12-11T18:38:22.418Z,35.17
2022-12-11T18:40:50.876Z,26.73
2022-12-11T18:43:18.154Z,33.28
2022-12-11T18:45:46.145Z,34.92
2022-12-11T18:48:18.791Z,28.08
2022-12-11T18:50:46.436Z,28.92
2022-12-11T18:53:13.279Z,29.88
2022-12-11T18:55:46.088Z,31.75
2022-12-11T18:58:14.972Z,30.08
2022-12-11T19:00:42.589Z,28.27
2022-12-11T19:03:09.667Z,29.95
2022-12-11T19:05:36.497Z,32.38
2022-12-11T19:08:03.773Z,31.83
2022-12-11T19:10:30.323Z,32.03
2022-12-11T19:12:58.295Z,34.58
2022-12-11T19:15:24.857Z,35.97
2022-12-11T19:17:51.464Z,29.75
2022-12-11T19:20:47.449Z,34.00
2022-12-11T19:23:05.388Z,32.50
2022-12-11T19:25:32.500Z,33.28
2022-12-11T19:28:00.841Z,32.75
2022-12-11T19:30:27.360Z,31.92
2022-12-11T19:32:53.946Z,32.83
2022-12-11T19:35:20.454Z,32.63
2022-12-11T19:37:47.016Z,33.75
2022-12-11T19:40:13.548Z,32.30
2022-12-11T19:42:40.249Z,30.88
2022-12-11T19:45:09.033Z,31.27
2022-12-11T19:47:35.781Z,32.03
2022-12-11T19:50:02.889Z,27.08
2022-12-11T19:52:29.492Z,31.92
2022-12-11T19:55:01.388Z,27.60
2022-12-11T19:59:57.409Z,26.15
2022-12-11T20:02:25.893Z,32.78
2022-12-11T20:04:52.456Z,24.92
2022-12-11T20:07:19.455Z,29.08
2022-12-11T20:09:46.029Z,29.42
2022-12-11T20:12:12.718Z,31.08
2022-12-11T20:14:39.273Z,30.02
2022-12-11T20:17:14.613Z,32.72
2022-12-11T20:19:43.207Z,32.00
2022-12-11T20:22:10.445Z,27.38
2022-12-11T20:24:37.464Z,31.60
2022-12-11T20:27:04.244Z,27.98
2022-12-11T20:29:31.010Z,31.77
2022-12-11T20:31:57.571Z,26.45
2022-12-11T20:34:24.150Z,26.73
2022-12-11T20:36:52.846Z,25.63
2022-12-11T20:39:19.484Z,26.67
2022-12-11T20:41:46.081Z,27.83
2022-12-11T20:44:12.713Z,26.08
2022-12-11T20:46:39.227Z,31.48
2022-12-11T20:49:05.810Z,26.20
2022-12-11T20:51:32.396Z,31.67
2022-12-11T20:54:00.462Z,26.08
2022-12-11T20:56:28.677Z,28.15
2022-12-11T20:58:55.858Z,26.92
2022-12-11T21:01:24.404Z,26.67
2022-12-11T21:03:51.696Z,28.77
2022-12-11T21:06:19.845Z,32.75
2022-12-11T21:08:46.474Z,31.88
2022-12-11T21:11:14.492Z,33.78
2022-12-11T21:13:41.472Z,32.70
2022-12-11T21:16:09.300Z,34.20
2022-12-11T21:18:35.958Z,32.65
2022-12-11T21:21:02.813Z,31.60
2022-12-11T21:23:29.339Z,34.65
2022-12-11T21:25:55.864Z,32.67
2022-12-11T21:28:23.884Z,33.35
2022-12-11T21:30:50.653Z,30.30
2022-12-11T21:33:17.272Z,32.40
2022-12-11T21:35:43.778Z,38.13
2022-12-11T21:38:10.445Z,31.13
2022-12-11T21:40:36.968Z,25.88
2022-12-11T21:43:03.672Z,27.05
2022-12-11T21:46:00.251Z,30.65
2022-12-11T21:48:22.025Z,31.70
2022-12-11T21:50:48.515Z,29.10
2022-12-11T21:53:15.065Z,30.27
2022-12-11T21:55:42.054Z,30.55
2022-12-11T21:58:09.089Z,28.23
2022-12-11T22:00:39.229Z,29.60
2022-12-11T22:03:05.951Z,31.88
2022-12-11T22:05:32.469Z,31.00
2022-12-11T22:07:59.085Z,27.52
2022-12-11T22:10:25.744Z,29.73
2022-12-11T22:12:53.711Z,30.90
2022-12-11T22:15:20.357Z,32.78
2022-12-11T22:17:48.465Z,28.55
2022-12-11T22:20:14.952Z,29.88
2022-12-11T22:22:42.024Z,30.50
2022-12-11T22:25:09.141Z,30.70
2022-12-11T22:27:35.897Z,29.38
2022-12-11T22:30:02.618Z,32.35
2022-12-11T22:32:29.233Z,31.20
2022-12-11T22:34:59.798Z,25.80
2022-12-11T22:37:26.405Z,26.45
2022-12-11T22:39:53.052Z,27.20
2022-12-11T22:42:19.885Z,30.08
2022-12-11T22:44:46.356Z,26.15
2022-12-11T22:47:12.923Z,26.55
2022-12-11T22:49:39.407Z,29.02
2022-12-11T22:52:07.343Z,30.00
2022-12-11T22:54:34.067Z,29.67
2022-12-11T22:57:00.632Z,30.30
2022-12-11T22:59:27.128Z,31.63
2022-12-11T23:01:53.677Z,27.85
2022-12-11T23:04:20.176Z,29.40
2022-12-11T23:06:47.960Z,28.23
2022-12-11T23:09:15.834Z,31.63
2022-12-11T23:11:42.726Z,28.20
2022-12-11T23:14:14.691Z,30.05
2022-12-11T23:19:08.034Z,33.45
2022-12-11T23:21:35.304Z,30.65
2022-12-11T23:24:02.142Z,26.88
2022-12-11T23:26:30.895Z,30.88
2022-12-11T23:28:58.620Z,29.50
2022-12-11T23:31:26.608Z,29.35
2022-12-11T23:33:53.197Z,32.03
2022-12-11T23:36:19.973Z,29.88
2022-12-11T23:38:52.557Z,31.50
2022-12-11T23:41:21.404Z,29.48
2022-12-11T23:43:49.281Z,25.73
2022-12-11T23:46:19.446Z,30.77
2022-12-11T23:48:46.408Z,30.08
2022-12-11T23:51:15.137Z,32.47
2022-12-11T23:53:42.794Z,29.40
2022-12-11T23:56:12.156Z,29.48
2022-12-11T23:58:40.168Z,29.92
